Time;durP1;ratioP1;P1;durP2;ratioP2;P2;SDS_P1;SDS_P2;PMS_P1;PMS_P2;Temp;Humidity;BMP_temperature;BMP_pressure;BME280_temperature;BME280_humidity;BME280_pressure;Samples;Min_cycle;Max_cycle;Signal;HPM_P1;HPM_P2
2023/10/10 00:00:54;;;;;;;5.70;1.60;;;16.00;99.90;;;;;;5075192;28;20428;-82
2023/10/10 00:03:21;;;;;;;2.70;1.00;;;15.90;99.90;;;;;;5074742;28;20467;-82
2023/10/10 00:05:49;;;;;;;1.87;1.17;;;15.90;99.90;;;;;;5074964;28;20485;-82
2023/10/10 00:08:20;;;;;;;9.13;1.20;;;16.00;99.90;;;;;;5074638;28;20938;-82
2023/10/10 00:10:50;;;;;;;5.27;0.97;;;15.90;99.90;;;;;;5074658;28;20811;-82
2023/10/10 00:13:19;;;;;;;6.80;1.33;;;15.90;99.90;;;;;;5074824;28;20461;-81
2023/10/10 00:15:51;;;;;;;2.23;1.27;;;15.90;99.90;;;;;;5074825;28;20539;-82
2023/10/10 00:18:21;;;;;;;1.00;0.93;;;15.90;99.90;;;;;;5074792;28;20429;-82
2023/10/10 00:21:06;;;;;;;4.97;1.10;;;15.90;99.90;;;;;;5074753;28;20429;-82
2023/10/10 00:23:42;;;;;;;3.83;1.13;;;15.90;99.90;;;;;;5074629;28;20473;-82
2023/10/10 00:26:12;;;;;;;7.50;1.67;;;15.80;99.90;;;;;;5074375;28;20464;-82
2023/10/10 00:28:41;;;;;;;4.80;1.20;;;15.80;99.90;;;;;;5074612;28;20456;-82
2023/10/10 00:31:10;;;;;;;6.70;2.20;;;15.80;99.90;;;;;;5074224;28;20976;-82
2023/10/10 00:33:38;;;;;;;3.17;1.10;;;15.70;99.90;;;;;;5074396;28;20526;-82
2023/10/10 00:36:07;;;;;;;2.33;1.47;;;15.70;99.90;;;;;;5074100;28;20942;-82
2023/10/10 00:38:34;;;;;;;3.90;1.30;;;15.70;99.90;;;;;;5074062;28;20449;-82
2023/10/10 00:41:05;;;;;;;5.03;1.70;;;15.70;99.90;;;;;;5074343;28;20433;-82
2023/10/10 00:43:32;;;;;;;1.60;1.00;;;15.60;99.90;;;;;;5074020;28;20541;-82
2023/10/10 00:46:04;;;;;;;5.53;1.30;;;15.60;99.90;;;;;;5074207;28;20484;-82
2023/10/10 00:48:34;;;;;;;2.73;1.30;;;15.60;99.90;;;;;;5074258;28;20531;-82
2023/10/10 00:51:06;;;;;;;2.13;1.03;;;15.50;99.90;;;;;;5073715;28;20572;-82
2023/10/10 00:53:36;;;;;;;3.10;1.07;;;15.50;99.90;;;;;;5074090;28;20552;-82
2023/10/10 00:56:06;;;;;;;0.93;0.90;;;15.50;99.90;;;;;;5073332;28;20444;-82
2023/10/10 00:58:37;;;;;;;10.40;1.80;;;15.50;99.90;;;;;;5073680;28;20452;-82
2023/10/10 01:01:08;;;;;;;4.20;1.00;;;15.40;99.90;;;;;;5074766;28;20494;-82
2023/10/10 01:03:35;;;;;;;2.73;0.90;;;15.40;99.90;;;;;;5073890;28;20504;-82
2023/10/10 01:06:07;;;;;;;4.97;1.83;;;15.40;99.90;;;;;;5073804;28;20481;-82
2023/10/10 01:08:54;;;;;;;1.10;1.00;;;15.40;99.90;;;;;;5073503;28;20440;-81
2023/10/10 01:11:22;;;;;;;11.03;1.77;;;15.30;99.90;;;;;;5073821;28;20457;-81
2023/10/10 01:13:49;;;;;;;5.60;2.13;;;15.30;99.90;;;;;;5073715;28;20465;-82
2023/10/10 01:16:17;;;;;;;3.70;1.50;;;15.30;99.90;;;;;;5073679;28;20452;-82
2023/10/10 01:18:51;;;;;;;3.07;1.40;;;15.30;99.90;;;;;;5073661;28;20449;-82
2023/10/10 01:21:28;;;;;;;4.00;1.20;;;15.20;99.90;;;;;;5074469;28;20440;-81
2023/10/10 01:23:58;;;;;;;7.13;1.40;;;15.20;99.90;;;;;;5073523;28;20491;-82
2023/10/10 01:26:28;;;;;;;3.43;1.57;;;15.10;99.90;;;;;;5073465;28;20579;-82
2023/10/10 01:28:59;;;;;;;13.27;1.90;;;15.10;99.90;;;;;;5073229;28;20918;-82
2023/10/10 01:31:30;;;;;;;4.93;1.53;;;15.00;99.90;;;;;;5073499;28;20516;-82
2023/10/10 01:34:00;;;;;;;26.37;2.00;;;15.00;99.90;;;;;;5073490;28;20522;-82
2023/10/10 01:36:29;;;;;;;3.83;1.20;;;15.00;99.90;;;;;;5073394;28;20445;-82
2023/10/10 01:39:28;;;;;;;4.30;1.33;;;14.90;99.90;;;;;;5073407;28;20816;-82
2023/10/10 01:41:55;;;;;;;4.20;1.50;;;14.90;99.90;;;;;;5073432;28;20839;-82
2023/10/10 01:44:23;;;;;;;7.53;1.47;;;14.90;99.90;;;;;;5073303;28;20475;-82
2023/10/10 01:46:52;;;;;;;4.40;1.57;;;14.90;99.90;;;;;;5073232;28;20491;-82
2023/10/10 01:49:25;;;;;;;2.50;0.80;;;15.00;99.90;;;;;;5072814;28;20453;-82
2023/10/10 01:51:58;;;;;;;3.60;1.43;;;15.00;99.90;;;;;;5073307;28;20429;-82
2023/10/10 01:54:34;;;;;;;2.53;1.20;;;15.00;99.90;;;;;;5073347;28;20520;-82
2023/10/10 01:57:06;;;;;;;9.03;1.20;;;15.10;99.90;;;;;;5073298;28;20495;-82
2023/10/10 01:59:35;;;;;;;4.43;1.30;;;15.10;99.90;;;;;;5072921;28;20936;-82
2023/10/10 02:02:06;;;;;;;3.50;1.23;;;15.00;99.90;;;;;;5072757;28;20510;-82
2023/10/10 02:04:35;;;;;;;2.60;1.17;;;15.00;99.90;;;;;;5072875;28;20433;-82
2023/10/10 02:07:08;;;;;;;7.27;1.00;;;15.00;99.90;;;;;;5074581;28;21001;-82
2023/10/10 02:09:37;;;;;;;5.00;1.30;;;15.00;99.90;;;;;;5076961;28;20466;-82
2023/10/10 02:12:15;;;;;;;2.93;0.90;;;15.00;99.90;;;;;;5077094;28;20456;-82
2023/10/10 02:14:43;;;;;;;2.53;1.00;;;15.00;99.90;;;;;;5077175;28;20508;-81
2023/10/10 02:17:21;;;;;;;2.70;0.87;;;15.00;99.90;;;;;;5076829;28;20535;-82
2023/10/10 02:19:57;;;;;;;1.30;0.77;;;15.00;99.90;;;;;;5077091;28;20459;-82
2023/10/10 02:22:47;;;;;;;3.37;1.20;;;15.00;99.90;;;;;;5076956;28;20466;-82
2023/10/10 02:25:37;;;;;;;8.80;1.83;;;15.00;99.90;;;;;;5076870;28;20429;-82
2023/10/10 02:28:10;;;;;;;2.13;1.30;;;15.10;99.90;;;;;;5076665;28;20441;-82
2023/10/10 02:30:37;;;;;;;1.03;0.70;;;15.10;99.90;;;;;;5077182;28;20521;-82
2023/10/10 02:33:14;;;;;;;3.93;0.93;;;15.10;99.90;;;;;;5076706;28;20460;-82
2023/10/10 02:35:54;;;;;;;7.80;1.43;;;15.10;99.90;;;;;;5076697;28;20816;-82
2023/10/10 02:38:31;;;;;;;1.27;0.90;;;15.10;99.90;;;;;;5076782;28;20424;-82
2023/10/10 02:41:22;;;;;;;3.00;1.30;;;15.00;99.90;;;;;;5076696;28;20428;-82
2023/10/10 02:44:03;;;;;;;7.33;1.87;;;15.00;99.90;;;;;;5076575;28;20461;-82
2023/10/10 02:46:35;;;;;;;4.90;1.53;;;15.00;99.90;;;;;;5076520;28;20495;-82
2023/10/10 02:49:09;;;;;;;2.40;0.90;;;15.00;99.90;;;;;;5076340;28;20425;-83
2023/10/10 02:51:40;;;;;;;2.50;0.90;;;15.00;99.90;;;;;;5076469;28;20486;-82
2023/10/10 02:54:21;;;;;;;3.90;1.07;;;14.90;99.90;;;;;;5076485;28;20468;-82
2023/10/10 02:56:48;;;;;;;1.80;0.90;;;14.90;99.90;;;;;;5076398;28;20467;-82
2023/10/10 02:59:21;;;;;;;3.20;1.00;;;14.90;99.90;;;;;;5076295;28;20449;-82
2023/10/10 03:01:56;;;;;;;3.00;1.23;;;14.90;99.90;;;;;;5076392;28;20421;-82
2023/10/10 03:04:41;;;;;;;2.63;1.40;;;14.90;99.90;;;;;;5076276;28;20437;-82
2023/10/10 03:07:11;;;;;;;5.60;1.23;;;14.90;99.90;;;;;;5076351;28;20464;-83
2023/10/10 03:10:21;;;;;;;5.07;1.23;;;14.90;99.90;;;;;;5076176;28;20444;-82
2023/10/10 03:12:29;;;;;;;3.53;1.57;;;15.00;99.90;;;;;;5075519;28;20465;-82
2023/10/10 03:15:04;;;;;;;3.07;1.00;;;15.00;99.90;;;;;;5076048;28;20440;-81
2023/10/10 03:17:43;;;;;;;8.63;1.77;;;15.00;99.90;;;;;;5075595;28;20421;-81
2023/10/10 03:20:14;;;;;;;2.03;0.80;;;15.00;99.90;;;;;;5075351;28;20432;-82
2023/10/10 03:23:07;;;;;;;2.53;1.03;;;15.00;99.90;;;;;;5075837;28;20473;-81
2023/10/10 03:25:46;;;;;;;6.30;1.90;;;14.90;99.90;;;;;;5076100;28;20445;-82
2023/10/10 03:28:18;;;;;;;2.70;1.73;;;14.90;99.90;;;;;;5075855;28;20468;-82
2023/10/10 03:30:51;;;;;;;2.13;1.00;;;14.80;99.90;;;;;;5075431;28;20528;-82
2023/10/10 03:33:35;;;;;;;1.80;1.00;;;14.80;99.90;;;;;;5075633;28;20483;-82
2023/10/10 03:36:22;;;;;;;3.37;1.73;;;14.80;99.90;;;;;;5075384;28;20425;-82
2023/10/10 05:25:50;;;;;;;6.77;2.47;;;13.70;99.90;;;;;;5073280;28;20450;-82
2023/10/10 05:28:18;;;;;;;3.63;1.00;;;13.70;99.90;;;;;;5073523;28;20460;-82
2023/10/10 05:30:45;;;;;;;3.33;1.10;;;13.80;99.90;;;;;;5073458;28;20453;-82
2023/10/10 05:33:13;;;;;;;3.70;1.33;;;13.80;99.90;;;;;;5073444;28;20910;-82
2023/10/10 05:35:47;;;;;;;7.57;1.23;;;13.80;99.90;;;;;;5073451;28;20448;-82
2023/10/10 05:38:15;;;;;;;5.77;1.40;;;13.80;99.90;;;;;;5073469;28;20532;-82
2023/10/10 05:40:43;;;;;;;3.93;1.50;;;13.80;99.90;;;;;;5073318;28;20514;-82
2023/10/10 05:43:15;;;;;;;3.00;1.40;;;13.90;99.90;;;;;;5073076;28;20473;-82
2023/10/10 05:45:42;;;;;;;5.20;0.90;;;13.80;99.90;;;;;;5073086;28;20425;-82
2023/10/10 05:48:09;;;;;;;3.40;1.33;;;13.80;99.90;;;;;;5073029;28;20813;-82
2023/10/10 05:50:37;;;;;;;1.47;0.83;;;13.80;99.90;;;;;;5072838;28;20489;-81
2023/10/10 05:53:07;;;;;;;2.83;1.13;;;13.80;99.90;;;;;;5073189;28;20539;-82
2023/10/10 05:55:35;;;;;;;1.03;0.97;;;13.90;99.90;;;;;;5073222;28;20440;-82
2023/10/10 05:58:02;;;;;;;1.17;0.80;;;13.90;99.90;;;;;;5073453;28;20520;-82
2023/10/10 06:00:36;;;;;;;9.17;1.30;;;13.90;99.90;;;;;;5072882;28;20543;-82
2023/10/10 06:03:03;;;;;;;4.13;1.90;;;14.00;99.90;;;;;;5073131;28;20476;-82
2023/10/10 06:05:30;;;;;;;10.07;1.50;;;14.10;99.90;;;;;;5073152;28;20502;-82
2023/10/10 06:07:58;;;;;;;5.00;1.40;;;14.10;99.90;;;;;;5073043;28;20491;-81
2023/10/10 06:10:31;;;;;;;5.47;1.73;;;14.20;99.90;;;;;;5073003;28;20441;-82
2023/10/10 06:13:03;;;;;;;3.13;1.10;;;14.20;99.90;;;;;;5073017;28;20461;-82
2023/10/10 06:15:33;;;;;;;1.57;1.10;;;14.30;99.90;;;;;;5073140;28;20429;-82
2023/10/10 06:18:08;;;;;;;6.90;1.47;;;14.40;99.90;;;;;;5073360;28;20437;-82
2023/10/10 06:20:40;;;;;;;2.30;1.03;;;14.40;99.90;;;;;;5072778;28;20924;-82
2023/10/10 06:23:08;;;;;;;5.50;1.30;;;14.50;99.90;;;;;;5072931;28;20465;-82
2023/10/10 06:25:36;;;;;;;7.37;1.33;;;14.50;99.90;;;;;;5072902;28;20498;-82
2023/10/10 06:28:05;;;;;;;2.43;1.20;;;14.50;99.90;;;;;;5072546;28;21020;-82
2023/10/10 06:30:36;;;;;;;1.80;0.90;;;14.50;99.90;;;;;;5072882;28;20445;-82
2023/10/10 06:33:10;;;;;;;6.77;1.87;;;14.60;99.90;;;;;;5073457;28;20461;-82
2023/10/10 06:35:37;;;;;;;6.90;1.50;;;14.60;99.90;;;;;;5073159;28;20818;-82
2023/10/10 06:38:10;;;;;;;4.03;1.27;;;14.50;99.90;;;;;;5073369;28;20983;-82
2023/10/10 06:40:42;;;;;;;2.90;1.47;;;14.50;99.90;;;;;;5072881;28;20514;-83
2023/10/10 06:43:09;;;;;;;6.67;1.40;;;14.50;99.90;;;;;;5072734;28;20552;-83
2023/10/10 06:45:37;;;;;;;6.07;2.10;;;14.50;99.90;;;;;;5072471;28;20535;-83
2023/10/10 06:48:04;;;;;;;6.60;2.37;;;15.00;99.90;;;;;;5072349;28;20825;-83
2023/10/10 06:50:32;;;;;;;9.97;3.03;;;14.40;99.90;;;;;;5072357;28;20491;-83
2023/10/10 06:53:00;;;;;;;6.93;1.57;;;14.40;99.90;;;;;;5073252;28;20457;-83
2023/10/10 06:55:36;;;;;;;8.97;2.60;;;14.40;99.90;;;;;;5076322;28;20959;-83
2023/10/10 06:58:05;;;;;;;4.00;1.97;;;14.40;99.90;;;;;;5076560;28;20801;-82
2023/10/10 07:00:42;;;;;;;7.97;2.70;;;14.40;99.90;;;;;;5076302;28;20447;-83
2023/10/10 07:03:09;;;;;;;6.70;1.50;;;14.50;99.90;;;;;;5076167;28;20468;-82
2023/10/10 07:05:39;;;;;;;3.07;1.83;;;14.50;99.90;;;;;;5076220;28;20456;-82
2023/10/10 07:08:24;;;;;;;3.90;2.20;;;14.50;99.90;;;;;;5076085;28;20489;-82
2023/10/10 07:10:53;;;;;;;4.03;1.97;;;14.50;99.90;;;;;;5076306;28;20448;-82
2023/10/10 07:13:29;;;;;;;5.70;1.90;;;14.60;99.90;;;;;;5075725;28;20464;-83
2023/10/10 07:15:56;;;;;;;5.67;1.77;;;14.50;99.90;;;;;;5076067;28;20433;-82
2023/10/10 07:18:23;;;;;;;9.03;2.00;;;14.60;99.90;;;;;;5075666;28;20790;-82
2023/10/10 07:21:08;;;;;;;4.63;1.73;;;14.70;99.90;;;;;;5075983;28;20480;-82
2023/10/10 07:23:39;;;;;;;2.60;2.10;;;14.70;99.90;;;;;;5075467;28;20855;-83
2023/10/10 07:26:06;;;;;;;4.27;1.53;;;14.80;99.90;;;;;;5075515;28;20436;-83
2023/10/10 07:28:47;;;;;;;1.57;1.47;;;14.90;99.90;;;;;;5075737;28;20497;-83
2023/10/10 07:31:17;;;;;;;1.90;1.30;;;15.00;99.90;;;;;;5075716;28;20433;-83
2023/10/10 07:33:54;;;;;;;3.50;1.07;;;15.10;99.90;;;;;;5075778;28;20472;-82
2023/10/10 07:36:24;;;;;;;2.13;1.30;;;15.20;99.90;;;;;;5075383;28;20984;-82
2023/10/10 07:38:54;;;;;;;1.27;1.17;;;15.40;99.90;;;;;;5076104;28;20529;-82
2023/10/10 07:41:24;;;;;;;5.37;2.33;;;15.40;99.90;;;;;;5075756;28;20459;-83
2023/10/10 07:43:52;;;;;;;4.00;1.70;;;15.50;99.90;;;;;;5075316;28;20479;-82
2023/10/10 07:46:22;;;;;;;5.43;2.10;;;15.70;99.90;;;;;;5075483;28;20522;-82
2023/10/10 07:48:53;;;;;;;7.33;1.77;;;15.80;99.90;;;;;;5075434;28;20437;-82
2023/10/10 07:51:27;;;;;;;5.77;2.20;;;15.90;99.90;;;;;;5074977;28;20476;-82
2023/10/10 07:54:12;;;;;;;9.60;1.73;;;15.90;99.90;;;;;;5075317;28;20460;-82
2023/10/10 07:56:45;;;;;;;5.20;2.80;;;16.00;99.90;;;;;;5075320;28;20472;-82
2023/10/10 07:59:13;;;;;;;6.07;1.97;;;16.10;99.90;;;;;;5075264;28;20452;-82
2023/10/10 08:01:41;;;;;;;4.50;2.40;;;16.20;99.90;;;;;;5075208;28;20491;-83
2023/10/10 08:04:08;;;;;;;8.47;1.87;;;16.20;99.90;;;;;;5074850;28;20500;-83
2023/10/10 08:06:38;;;;;;;5.63;2.30;;;16.30;99.90;;;;;;5075011;28;20480;-83
2023/10/10 08:09:18;;;;;;;18.57;3.47;;;16.40;99.90;;;;;;5075044;28;20441;-82
2023/10/10 08:11:45;;;;;;;3.57;2.13;;;16.40;99.90;;;;;;5074741;28;20429;-82
2023/10/10 08:14:17;;;;;;;7.83;2.50;;;16.50;99.90;;;;;;5074886;28;20469;-82
2023/10/10 08:16:43;;;;;;;11.27;3.00;;;16.60;99.90;;;;;;5074979;28;20536;-83
2023/10/10 08:19:10;;;;;;;3.07;1.17;;;16.70;99.90;;;;;;5074701;28;20805;-82
2023/10/10 08:21:38;;;;;;;4.23;1.77;;;16.90;99.90;;;;;;5074766;28;20441;-82
2023/10/10 08:24:07;;;;;;;5.27;1.53;;;17.00;99.90;;;;;;5074637;28;20505;-82
2023/10/10 08:26:39;;;;;;;1.73;1.10;;;17.20;99.90;;;;;;5074312;28;20441;-82
2023/10/10 08:29:07;;;;;;;4.67;1.17;;;17.30;99.90;;;;;;5074685;28;20437;-82
2023/10/10 08:31:37;;;;;;;2.83;1.30;;;17.50;99.90;;;;;;5074264;28;20483;-82
2023/10/10 08:34:04;;;;;;;4.60;0.83;;;17.70;99.90;;;;;;5074137;28;20472;-82
2023/10/10 08:36:32;;;;;;;2.83;1.00;;;17.90;99.90;;;;;;5074205;28;20467;-83
2023/10/10 08:39:18;;;;;;;2.97;1.07;;;18.20;99.90;;;;;;5074435;28;20425;-82
2023/10/10 08:41:52;;;;;;;2.40;0.93;;;18.30;99.90;;;;;;5074416;28;20452;-82
2023/10/10 08:44:20;;;;;;;13.10;1.70;;;18.60;99.90;;;;;;5074490;28;20913;-82
2023/10/10 08:46:52;;;;;;;1.90;1.10;;;18.90;99.90;;;;;;5074373;28;20490;-83
2023/10/10 08:49:19;;;;;;;3.07;1.73;;;19.10;99.90;;;;;;5073696;28;20452;-82
2023/10/10 08:51:48;;;;;;;3.47;1.30;;;19.60;99.90;;;;;;5074232;28;20436;-83
2023/10/10 08:54:15;;;;;;;2.57;1.30;;;20.10;99.90;;;;;;5074064;28;20468;-83
2023/10/10 08:56:53;;;;;;;9.07;1.40;;;20.60;99.90;;;;;;5074084;28;20460;-84
2023/10/10 08:59:20;;;;;;;2.57;1.50;;;21.20;99.90;;;;;;5074089;28;20424;-83
2023/10/10 09:01:47;;;;;;;8.77;1.93;;;21.80;99.90;;;;;;5073994;28;20445;-83
2023/10/10 09:04:18;;;;;;;3.27;1.30;;;22.20;99.90;;;;;;5073903;28;20464;-83
2023/10/10 09:06:45;;;;;;;3.80;1.30;;;22.30;99.90;;;;;;5073974;28;20460;-81
2023/10/10 09:11:56;;;;;;;10.73;2.30;;;22.70;99.90;;;;;;5064598;28;20436;-81
2023/10/10 09:14:37;;;;;;;3.13;1.07;;;22.60;99.90;;;;;;5073729;28;20468;-82
2023/10/10 09:17:06;;;;;;;9.93;1.37;;;22.80;99.90;;;;;;5073308;28;20425;-81
2023/10/10 09:19:39;;;;;;;6.93;1.70;;;23.10;99.90;;;;;;5073735;28;20444;-81
2023/10/10 09:22:12;;;;;;;1.90;1.40;;;23.10;99.90;;;;;;5073650;28;20194;-81
2023/10/10 09:24:41;;;;;;;2.58;1.00;;;23.20;99.90;;;;;;5073453;28;20320;-81
2023/10/10 09:27:21;;;;;;;6.18;1.60;;;23.40;99.90;;;;;;5073548;28;20293;-81
2023/10/10 09:29:54;;;;;;;1.27;1.17;;;23.60;99.90;;;;;;5074436;28;20213;-81
2023/10/10 09:32:28;;;;;;;3.55;1.77;;;23.80;99.90;;;;;;5073457;28;20321;-81
2023/10/10 09:34:57;;;;;;;2.65;1.65;;;23.90;99.90;;;;;;5073302;28;20572;-81
2023/10/10 09:37:35;;;;;;;3.63;1.10;;;24.10;99.90;;;;;;5073454;28;20229;-81
2023/10/10 09:40:06;;;;;;;7.93;1.20;;;24.10;99.90;;;;;;5073513;28;20276;-81
2023/10/10 09:42:53;;;;;;;3.85;1.30;;;24.10;99.90;;;;;;5073040;28;20218;-81
2023/10/10 09:45:35;;;;;;;4.53;1.55;;;24.10;99.90;;;;;;5073403;28;20190;-81
2023/10/10 09:48:06;;;;;;;3.17;1.65;;;23.90;99.90;;;;;;5073314;28;20209;-83
2023/10/10 09:50:45;;;;;;;3.83;1.35;;;23.70;99.90;;;;;;5072947;28;20230;-82
2023/10/10 09:53:23;;;;;;;3.50;1.97;;;23.50;99.90;;;;;;5073330;28;20240;-81
2023/10/10 09:55:53;;;;;;;5.93;1.13;;;23.30;99.90;;;;;;5073368;28;20186;-81
2023/10/10 09:58:28;;;;;;;4.00;1.90;;;23.20;99.90;;;;;;5072962;28;20247;-81
2023/10/10 10:01:04;;;;;;;2.50;0.97;;;23.10;99.90;;;;;;5073286;28;20196;-82
2023/10/10 10:03:49;;;;;;;2.33;1.38;;;23.30;99.90;;;;;;5073285;28;20226;-81
2023/10/10 10:06:51;;;;;;;3.23;1.50;;;23.00;99.90;;;;;;5072975;28;20201;-82
2023/10/10 10:10:12;;;;;;;1.33;1.00;;;22.80;99.90;;;;;;5073177;28;20224;-82
2023/10/10 10:13:00;;;;;;;1.13;1.03;;;22.90;99.90;;;;;;5035448;28;20230;-82
2023/10/10 10:15:48;;;;;;;6.13;1.10;;;23.00;99.90;;;;;;5073144;28;20190;-82
2023/10/10 10:18:26;;;;;;;3.40;1.20;;;23.00;99.90;;;;;;5073088;28;20202;-82
2023/10/10 10:21:12;;;;;;;2.30;1.00;;;23.10;99.90;;;;;;5073066;28;20186;-82
2023/10/10 10:23:45;;;;;;;3.03;1.17;;;23.20;99.90;;;;;;5072928;28;20221;-82
2023/10/10 10:26:22;;;;;;;4.73;1.60;;;23.30;99.90;;;;;;5073053;28;20194;-83
2023/10/10 10:28:56;;;;;;;2.73;1.23;;;23.40;99.90;;;;;;5076021;28;20547;-82
2023/10/10 10:31:28;;;;;;;2.50;1.30;;;23.90;99.90;;;;;;5076956;28;20186;-82
2023/10/10 10:34:10;;;;;;;7.97;1.55;;;24.50;99.90;;;;;;5076667;28;20214;-82
2023/10/10 10:36:42;;;;;;;6.05;1.48;;;25.10;99.90;;;;;;5076815;28;20216;-82
2023/10/10 10:39:25;;;;;;;2.97;1.13;;;25.50;99.90;;;;;;5076436;28;20201;-83
2023/10/10 10:41:53;;;;;;;1.15;1.05;;;25.30;99.90;;;;;;5077363;28;20269;-82
2023/10/10 10:44:29;;;;;;;4.32;1.30;;;25.20;99.90;;;;;;5076647;28;20218;-83
2023/10/10 10:46:57;;;;;;;4.25;1.38;;;25.00;99.90;;;;;;5076698;28;20186;-83
2023/10/10 10:49:28;;;;;;;5.53;1.25;;;24.70;99.90;;;;;;5076442;28;20640;-82
2023/10/10 10:52:17;;;;;;;2.97;1.27;;;24.60;99.90;;;;;;5076536;28;20187;-82
2023/10/10 10:54:59;;;;;;;1.60;1.13;;;24.20;99.90;;;;;;5076202;28;20232;-82
2023/10/10 10:57:27;;;;;;;2.22;1.30;;;23.90;99.90;;;;;;5076458;28;20190;-83
2023/10/10 10:59:55;;;;;;;3.42;1.50;;;23.60;99.90;;;;;;5076364;28;20202;-82
2023/10/10 11:02:30;;;;;;;2.35;1.10;;;23.50;99.90;;;;;;5076258;28;20222;-83
2023/10/10 11:04:57;;;;;;;4.22;1.48;;;23.30;99.90;;;;;;5076331;28;20193;-83
2023/10/10 11:07:32;;;;;;;3.00;1.35;;;23.30;99.90;;;;;;5076182;28;20214;-83
2023/10/10 11:10:07;;;;;;;5.90;1.10;;;23.20;99.90;;;;;;5076212;28;20240;-82
2023/10/10 11:12:36;;;;;;;3.60;1.17;;;23.20;99.90;;;;;;5076133;28;20279;-82
2023/10/10 11:15:07;;;;;;;6.72;1.90;;;23.10;99.90;;;;;;5075750;28;20212;-82
2023/10/10 11:17:39;;;;;;;7.03;1.55;;;23.00;99.90;;;;;;5076130;28;20557;-82
2023/10/10 11:20:26;;;;;;;4.93;1.50;;;22.80;99.90;;;;;;5076039;28;20182;-82
2023/10/10 11:22:55;;;;;;;3.50;1.10;;;22.80;99.90;;;;;;5075656;28;20604;-82
2023/10/10 11:25:41;;;;;;;5.47;1.37;;;22.70;99.90;;;;;;5075940;28;20207;-82
2023/10/10 11:28:18;;;;;;;4.17;1.37;;;22.80;99.90;;;;;;5075773;28;20202;-82
2023/10/10 11:30:51;;;;;;;2.40;1.30;;;22.80;99.90;;;;;;5075849;28;20185;-82
2023/10/10 11:33:46;;;;;;;1.13;0.90;;;22.90;99.90;;;;;;5075846;28;20240;-82
2023/10/10 11:36:29;;;;;;;8.13;1.27;;;22.90;99.90;;;;;;5075727;28;20198;-82
2023/10/10 11:39:15;;;;;;;3.27;1.40;;;22.90;99.90;;;;;;5075140;28;20182;-82
2023/10/10 11:41:45;;;;;;;3.27;1.30;;;22.90;99.90;;;;;;5075662;28;20269;-82
2023/10/10 11:44:18;;;;;;;2.77;1.20;;;22.80;99.90;;;;;;5075579;28;20224;-81
2023/10/10 11:46:46;;;;;;;6.40;2.53;;;22.80;99.90;;;;;;5075239;28;20635;-82
2023/10/10 11:49:16;;;;;;;3.60;1.10;;;22.70;99.90;;;;;;5075123;28;20222;-82
2023/10/10 11:51:43;;;;;;;1.07;0.80;;;22.70;99.90;;;;;;5075587;28;20429;-82
2023/10/10 11:54:09;;;;;;;3.27;1.23;;;22.70;99.90;;;;;;5075562;28;20476;-82
2023/10/10 11:56:36;;;;;;;3.07;1.60;;;22.60;99.90;;;;;;5075378;28;20216;-81
2023/10/10 11:59:09;;;;;;;4.80;1.60;;;22.70;99.90;;;;;;5075127;28;20558;-82
2023/10/10 12:01:54;;;;;;;6.93;1.97;;;22.70;99.90;;;;;;5075324;28;20352;-82
2023/10/10 12:04:33;;;;;;;2.53;1.37;;;22.60;99.90;;;;;;5075618;28;20531;-79
2023/10/10 12:07:02;;;;;;;7.80;1.83;;;22.70;99.90;;;;;;5075175;28;20194;-82
2023/10/10 12:09:29;;;;;;;7.70;1.37;;;22.70;99.90;;;;;;5074701;28;20690;-82
2023/10/10 12:12:01;;;;;;;2.70;0.90;;;22.60;99.90;;;;;;5074950;28;20202;-82
2023/10/10 12:14:30;;;;;;;5.90;1.87;;;22.70;99.90;;;;;;5075263;28;20293;-82
2023/10/10 12:16:58;;;;;;;3.03;1.50;;;22.70;99.90;;;;;;5074689;28;20670;-82
2023/10/10 12:19:36;;;;;;;4.47;1.10;;;22.70;99.90;;;;;;5074924;28;20198;-82
2023/10/10 12:22:07;;;;;;;3.63;1.53;;;22.80;99.90;;;;;;5074965;28;20190;-82
2023/10/10 12:24:35;;;;;;;2.60;1.30;;;22.90;99.90;;;;;;5074837;28;20193;-82
2023/10/10 12:27:01;;;;;;;1.27;0.93;;;22.90;99.90;;;;;;5074707;28;20202;-82
2023/10/10 12:29:30;;;;;;;7.57;1.30;;;22.90;99.90;;;;;;5074623;28;20223;-82
2023/10/10 12:31:57;;;;;;;5.70;1.97;;;22.90;99.90;;;;;;5074598;28;20202;-82
2023/10/10 12:34:24;;;;;;;2.73;1.30;;;22.80;99.90;;;;;;5074835;28;20202;-83
2023/10/10 12:36:59;;;;;;;4.70;1.33;;;22.70;99.90;;;;;;5074275;28;20213;-82
2023/10/10 12:39:27;;;;;;;1.70;1.20;;;22.90;99.90;;;;;;5074770;28;20186;-82
2023/10/10 12:41:54;;;;;;;2.40;1.17;;;22.90;99.90;;;;;;5074524;28;20205;-82
2023/10/10 12:44:23;;;;;;;2.47;1.50;;;22.80;99.90;;;;;;5074266;28;20468;-83
2023/10/10 12:46:54;;;;;;;4.20;1.70;;;22.80;99.90;;;;;;5073999;28;20667;-82
2023/10/10 12:49:28;;;;;;;2.03;1.33;;;22.70;99.90;;;;;;5074018;28;20211;-82
2023/10/10 12:52:00;;;;;;;4.93;1.53;;;22.80;99.90;;;;;;5073293;28;20536;-82
2023/10/10 12:54:34;;;;;;;3.17;2.40;;;22.80;99.90;;;;;;5073818;28;20793;-82
2023/10/10 12:57:06;;;;;;;6.10;1.43;;;22.80;99.90;;;;;;5073808;28;20898;-82
2023/10/10 12:59:33;;;;;;;4.13;1.40;;;22.70;99.90;;;;;;5074124;28;20214;-82
2023/10/10 13:02:03;;;;;;;1.83;1.10;;;22.70;99.90;;;;;;5073930;28;20557;-82
2023/10/10 13:04:32;;;;;;;3.23;1.30;;;22.70;99.90;;;;;;5073706;28;20228;-82
2023/10/10 13:07:03;;;;;;;9.70;2.13;;;22.60;99.90;;;;;;5073816;28;20238;-82
2023/10/10 13:09:30;;;;;;;2.30;1.20;;;22.70;99.90;;;;;;5073623;28;20202;-83
2023/10/10 13:11:57;;;;;;;4.83;1.70;;;22.70;99.90;;;;;;5073751;28;20260;-82
2023/10/10 13:14:29;;;;;;;1.60;0.93;;;22.70;99.90;;;;;;5073797;28;20209;-82
2023/10/10 13:17:28;;;;;;;2.83;1.27;;;22.70;99.90;;;;;;5073481;28;20691;-82
2023/10/10 13:19:45;;;;;;;3.80;0.90;;;22.60;99.90;;;;;;5073217;28;20281;-82
2023/10/10 13:22:20;;;;;;;3.73;1.43;;;22.50;99.90;;;;;;5073529;28;20229;-82
2023/10/10 13:24:48;;;;;;;6.53;1.30;;;22.50;99.90;;;;;;5073651;28;20559;-82
2023/10/10 13:27:15;;;;;;;5.97;1.33;;;22.50;99.90;;;;;;5073626;28;20206;-82
2023/10/10 13:29:42;;;;;;;1.73;1.03;;;22.40;99.90;;;;;;5073448;28;20651;-82
2023/10/10 13:32:09;;;;;;;6.57;1.47;;;22.30;99.90;;;;;;5073438;28;20256;-82
2023/10/10 13:34:37;;;;;;;3.80;1.20;;;22.30;99.90;;;;;;5073227;28;20956;-82
2023/10/10 13:37:07;;;;;;;4.53;1.60;;;22.40;99.90;;;;;;5073473;28;20583;-82
2023/10/10 13:39:43;;;;;;;8.33;1.80;;;22.30;99.90;;;;;;5073745;28;20827;-82
2023/10/10 13:42:14;;;;;;;2.07;1.30;;;22.30;99.90;;;;;;5073486;28;20197;-82
2023/10/10 13:44:41;;;;;;;2.10;1.30;;;22.40;99.90;;;;;;5073412;28;20506;-82
2023/10/10 13:47:08;;;;;;;3.00;1.30;;;22.40;99.90;;;;;;5073419;28;20190;-82
2023/10/10 13:49:44;;;;;;;4.53;1.37;;;22.40;99.90;;;;;;5072986;28;20549;-82
2023/10/10 13:52:12;;;;;;;2.73;2.30;;;22.30;99.90;;;;;;5073282;28;20438;-82
2023/10/10 13:54:40;;;;;;;3.43;1.10;;;22.50;99.90;;;;;;5073268;28;20262;-82
2023/10/10 13:57:07;;;;;;;1.23;1.00;;;22.40;99.90;;;;;;5073293;28;20465;-82
2023/10/10 13:59:34;;;;;;;5.40;1.33;;;22.40;99.90;;;;;;5073146;28;21003;-82
2023/10/10 14:02:03;;;;;;;2.67;1.50;;;22.40;99.90;;;;;;5072599;28;20662;-82
2023/10/10 14:04:45;;;;;;;2.67;1.33;;;22.40;99.90;;;;;;5072793;28;20197;-82
2023/10/10 14:07:14;;;;;;;2.50;1.30;;;22.40;99.90;;;;;;5073231;28;20182;-82
2023/10/10 14:09:47;;;;;;;2.30;1.37;;;22.40;99.90;;;;;;5073065;28;20484;-82
2023/10/10 14:12:20;;;;;;;4.27;1.30;;;22.30;99.90;;;;;;5073097;28;20425;-82
2023/10/10 14:14:47;;;;;;;3.13;1.40;;;22.40;99.90;;;;;;5072811;28;20431;-82
2023/10/10 14:17:14;;;;;;;4.13;1.67;;;22.20;99.90;;;;;;5073080;28;20448;-82
2023/10/10 14:19:41;;;;;;;3.30;1.33;;;22.30;99.90;;;;;;5072984;28;20443;-82
2023/10/10 14:22:10;;;;;;;3.67;1.50;;;22.30;99.90;;;;;;5072976;28;20535;-82
2023/10/10 14:24:39;;;;;;;1.73;1.33;;;22.30;99.90;;;;;;5073289;28;20452;-82
2023/10/10 14:27:06;;;;;;;6.20;2.10;;;22.30;99.90;;;;;;5073653;28;20859;-82
2023/10/10 14:29:41;;;;;;;3.27;1.97;;;22.20;99.90;;;;;;5072975;28;20491;-82
2023/10/10 14:32:10;;;;;;;13.97;3.10;;;22.20;99.90;;;;;;5072887;28;20194;-82
2023/10/10 14:34:39;;;;;;;7.83;2.00;;;22.20;99.90;;;;;;5072990;28;20198;-82
2023/10/10 14:37:06;;;;;;;5.73;1.90;;;22.10;99.90;;;;;;5072882;28;20202;-82
2023/10/10 14:39:36;;;;;;;1.97;1.13;;;22.10;99.90;;;;;;5073131;28;20445;-83
2023/10/10 14:42:04;;;;;;;4.00;1.23;;;22.10;99.90;;;;;;5072771;28;20451;-82
2023/10/10 14:44:32;;;;;;;4.57;1.47;;;22.10;99.90;;;;;;5072917;28;20213;-82
2023/10/10 14:46:59;;;;;;;5.20;1.00;;;22.10;99.90;;;;;;5072505;28;20444;-82
2023/10/10 14:49:30;;;;;;;1.60;1.43;;;22.10;99.90;;;;;;5072425;28;20491;-82
2023/10/10 14:52:03;;;;;;;5.50;1.50;;;22.00;99.90;;;;;;5072512;28;20471;-82
2023/10/10 14:54:30;;;;;;;10.80;1.70;;;22.00;99.90;;;;;;5072431;28;20902;-82
2023/10/10 14:56:57;;;;;;;4.50;2.10;;;21.90;99.90;;;;;;5072692;28;20260;-82
2023/10/10 14:59:31;;;;;;;1.90;1.53;;;21.80;99.90;;;;;;5072681;28;20444;-82
2023/10/10 15:01:59;;;;;;;6.07;1.37;;;21.60;99.90;;;;;;5072606;28;20531;-82